Time;durP1;ratioP1;P1;durP2;ratioP2;P2;SDS_P1;SDS_P2;PMS_P1;PMS_P2;Temp;Humidity;BMP_temperature;BMP_pressure;BME280_temperature;BME280_humidity;BME280_pressure;Samples;Min_cycle;Max_cycle;Signal;HPM_P1;HPM_P2
2021/07/16 00:01:52;;;;;;;32.67;7.05;;;18.70;87.70;;;;;;5082421;28;20164;-92
2021/07/16 00:04:18;;;;;;;20.98;6.25;;;18.70;87.60;;;;;;5074445;28;20195;-91
2021/07/16 00:06:44;;;;;;;22.95;7.50;;;18.70;87.60;;;;;;5059405;28;20191;-92
2021/07/16 00:09:10;;;;;;;22.63;7.05;;;18.70;87.60;;;;;;5059086;28;20179;-91
2021/07/16 00:11:36;;;;;;;22.73;8.50;;;18.70;87.50;;;;;;5074077;28;20184;-91
2021/07/16 00:14:03;;;;;;;30.33;7.50;;;18.60;87.50;;;;;;5058121;28;20175;-92
2021/07/16 00:16:28;;;;;;;25.30;7.03;;;18.50;87.70;;;;;;5075896;28;20214;-92
2021/07/16 00:18:54;;;;;;;26.90;7.63;;;18.50;87.80;;;;;;5063216;28;20182;-93
2021/07/16 00:21:20;;;;;;;25.65;7.38;;;18.50;87.70;;;;;;5061877;28;20179;-94
2021/07/16 00:23:46;;;;;;;24.05;7.15;;;18.50;87.90;;;;;;5060965;28;20199;-92
2021/07/16 00:26:13;;;;;;;22.05;7.20;;;18.50;87.80;;;;;;5059715;28;20225;-92
2021/07/16 00:28:38;;;;;;;24.50;8.48;;;18.50;87.80;;;;;;5077333;28;20206;-92
2021/07/16 00:31:04;;;;;;;27.95;8.30;;;18.50;88.00;;;;;;5079865;28;20176;-92
2021/07/16 00:33:30;;;;;;;27.42;7.95;;;18.50;87.90;;;;;;5077022;28;20180;-92
2021/07/16 00:35:56;;;;;;;28.02;7.22;;;18.50;87.90;;;;;;5058586;28;20202;-92
2021/07/16 00:38:21;;;;;;;29.83;7.80;;;18.40;87.90;;;;;;5058098;28;20181;-92
2021/07/16 00:40:47;;;;;;;26.00;8.07;;;18.40;87.80;;;;;;5074512;28;20209;-92
2021/07/16 00:43:13;;;;;;;26.05;7.28;;;18.40;87.90;;;;;;5058494;28;20191;-92
2021/07/16 00:45:39;;;;;;;35.78;8.85;;;18.50;87.90;;;;;;5057428;28;20175;-92
2021/07/16 00:48:05;;;;;;;24.17;8.23;;;18.40;87.90;;;;;;5058008;28;20191;-92
2021/07/16 00:50:36;;;;;;;27.60;7.65;;;18.40;87.80;;;;;;5058202;28;20181;-91
2021/07/16 00:53:03;;;;;;;29.08;8.63;;;18.40;87.90;;;;;;5075033;28;20164;-92
2021/07/16 00:55:30;;;;;;;22.92;8.85;;;18.40;87.80;;;;;;5075110;28;20175;-92
2021/07/16 00:57:57;;;;;;;28.00;8.15;;;18.40;87.80;;;;;;5057878;28;20222;-92
2021/07/16 01:00:23;;;;;;;21.50;7.65;;;18.40;88.00;;;;;;5074879;28;20186;-92
2021/07/16 01:02:49;;;;;;;23.02;8.05;;;18.40;88.00;;;;;;5075486;28;20759;-92
2021/07/16 01:05:16;;;;;;;21.52;7.25;;;18.40;87.90;;;;;;5075080;28;20202;-91
2021/07/16 01:07:44;;;;;;;34.95;8.32;;;18.30;88.00;;;;;;5074249;28;20198;-92
2021/07/16 01:10:11;;;;;;;31.75;9.70;;;18.40;88.00;;;;;;5074721;28;20179;-92
2021/07/16 01:12:38;;;;;;;33.85;9.85;;;18.40;87.70;;;;;;5072837;28;20171;-92
2021/07/16 01:15:06;;;;;;;29.33;8.93;;;18.40;87.70;;;;;;5074209;28;20643;-93
2021/07/16 01:17:32;;;;;;;31.05;9.23;;;18.40;87.90;;;;;;5074420;28;20238;-94
2021/07/16 01:20:01;;;;;;;40.88;9.98;;;18.40;87.80;;;;;;5057593;28;20180;-94
2021/07/16 01:22:29;;;;;;;32.03;8.52;;;18.40;87.80;;;;;;5075170;28;20199;-92
2021/07/16 01:25:01;;;;;;;23.80;8.00;;;18.40;87.80;;;;;;5074246;28;20172;-91
2021/07/16 01:27:28;;;;;;;30.00;8.88;;;18.40;87.70;;;;;;5074129;28;20286;-92
2021/07/16 01:29:54;;;;;;;30.33;8.27;;;18.40;87.50;;;;;;5057557;28;20171;-92
2021/07/16 01:32:20;;;;;;;32.63;8.93;;;18.40;87.70;;;;;;5057736;28;20171;-92
2021/07/16 01:34:47;;;;;;;27.85;8.88;;;18.30;87.60;;;;;;5058179;28;20561;-92
2021/07/16 01:37:13;;;;;;;30.77;8.43;;;18.20;87.80;;;;;;5058161;28;20195;-92
2021/07/16 01:39:40;;;;;;;30.27;8.90;;;18.20;87.90;;;;;;5074848;28;20171;-92
2021/07/16 01:42:10;;;;;;;33.97;8.25;;;18.20;87.90;;;;;;5074275;28;20171;-92
2021/07/16 01:44:38;;;;;;;35.92;9.27;;;18.20;88.00;;;;;;5074808;28;20530;-92
2021/07/16 01:47:04;;;;;;;30.85;8.48;;;18.20;88.00;;;;;;5075357;28;20187;-92
2021/07/16 01:49:30;;;;;;;28.50;8.13;;;18.10;88.10;;;;;;5074747;28;20175;-92
2021/07/16 01:51:56;;;;;;;28.05;8.70;;;18.20;88.00;;;;;;5058510;28;20171;-91
2021/07/16 01:54:21;;;;;;;28.67;7.95;;;18.20;88.00;;;;;;5073767;28;20704;-92
2021/07/16 01:56:47;;;;;;;26.00;7.80;;;18.20;88.00;;;;;;5057620;28;20202;-92
2021/07/16 01:59:13;;;;;;;24.70;7.93;;;18.20;88.10;;;;;;5058097;28;20228;-92
2021/07/16 02:01:39;;;;;;;35.60;8.38;;;18.10;88.00;;;;;;5057686;28;20568;-92
2021/07/16 02:04:05;;;;;;;27.50;8.23;;;18.00;88.10;;;;;;5058111;28;20199;-92
2021/07/16 02:06:31;;;;;;;38.25;8.48;;;18.00;88.10;;;;;;5074229;28;20659;-92
2021/07/16 02:08:58;;;;;;;26.92;7.38;;;18.00;88.10;;;;;;5073904;28;20175;-92
2021/07/16 02:11:24;;;;;;;34.45;7.90;;;18.10;88.10;;;;;;5074119;28;20199;-91
2021/07/16 02:13:50;;;;;;;28.45;7.65;;;18.00;88.00;;;;;;5057136;28;20179;-92
2021/07/16 02:16:17;;;;;;;33.90;7.85;;;18.00;87.90;;;;;;5074062;28;20226;-92
2021/07/16 02:18:52;;;;;;;38.30;8.02;;;17.90;87.90;;;;;;5075002;28;20192;-92
2021/07/16 02:21:19;;;;;;;31.92;7.30;;;17.90;87.90;;;;;;5074440;28;20175;-92
2021/07/16 02:23:45;;;;;;;26.92;7.95;;;17.90;87.80;;;;;;5076269;28;20195;-93
2021/07/16 02:26:11;;;;;;;37.80;9.23;;;17.80;88.00;;;;;;5077565;28;20202;-94
2021/07/16 02:28:37;;;;;;;34.15;8.02;;;17.80;88.20;;;;;;5078872;28;20168;-94
2021/07/16 02:31:04;;;;;;;39.70;8.43;;;17.80;88.10;;;;;;5061731;28;20175;-94
2021/07/16 02:33:30;;;;;;;48.03;9.73;;;17.80;87.90;;;;;;5078701;28;20179;-94
2021/07/16 02:35:56;;;;;;;36.03;8.02;;;17.90;87.80;;;;;;5080009;28;20183;-94
2021/07/16 02:38:22;;;;;;;32.58;7.93;;;17.80;87.70;;;;;;5061164;28;20190;-94
2021/07/16 02:40:48;;;;;;;38.47;8.15;;;17.70;87.90;;;;;;5077355;28;20179;-93
2021/07/16 02:43:14;;;;;;;33.78;8.70;;;17.60;88.40;;;;;;5060842;28;20195;-94
2021/07/16 02:45:41;;;;;;;40.45;10.00;;;17.70;88.30;;;;;;5060907;28;20589;-94
2021/07/16 02:48:07;;;;;;;32.10;9.25;;;17.70;88.20;;;;;;5076971;28;20195;-93
2021/07/16 02:50:36;;;;;;;32.85;8.40;;;17.70;88.00;;;;;;5077276;28;20237;-94
2021/07/16 02:53:02;;;;;;;31.92;8.75;;;17.70;88.10;;;;;;5061168;28;20258;-92
2021/07/16 02:55:28;;;;;;;29.20;7.93;;;17.70;88.20;;;;;;5078000;28;20229;-92
2021/07/16 02:57:53;;;;;;;39.33;9.80;;;17.70;88.30;;;;;;5061137;28;20199;-92
2021/07/16 03:00:22;;;;;;;37.97;10.10;;;17.70;88.50;;;;;;5060631;28;20175;-92
2021/07/16 03:02:49;;;;;;;34.67;9.23;;;17.70;88.60;;;;;;5077881;28;20313;-92
2021/07/16 03:05:18;;;;;;;43.17;9.43;;;17.60;88.60;;;;;;5077237;28;20317;-92
2021/07/16 03:07:45;;;;;;;39.80;9.75;;;17.60;88.70;;;;;;5077172;28;20187;-92
2021/07/16 03:10:21;;;;;;;37.25;9.52;;;17.70;88.60;;;;;;5077269;28;20268;-92
2021/07/16 03:12:47;;;;;;;41.03;10.02;;;17.60;88.60;;;;;;5077400;28;20252;-92
2021/07/16 03:15:19;;;;;;;33.15;9.10;;;17.70;88.70;;;;;;5060457;28;20176;-92
2021/07/16 03:17:46;;;;;;;33.90;8.95;;;17.70;88.80;;;;;;5046468;23;20577;-89
2021/07/16 03:20:14;;;;;;;38.42;10.02;;;17.60;88.80;;;;;;4973765;28;20171;-89
2021/07/16 03:22:40;;;;;;;35.58;10.98;;;17.60;88.90;;;;;;4973601;28;20226;-89
2021/07/16 03:25:07;;;;;;;37.75;9.40;;;17.60;88.90;;;;;;4973539;28;20167;-89
2021/07/16 03:27:33;;;;;;;37.72;9.13;;;17.70;88.70;;;;;;4972236;28;20289;-89
2021/07/16 03:29:59;;;;;;;41.15;9.82;;;17.70;88.40;;;;;;4973384;28;20249;-89
2021/07/16 03:32:25;;;;;;;33.78;9.32;;;17.60;88.70;;;;;;4972327;28;20182;-89
2021/07/16 03:34:50;;;;;;;42.47;10.65;;;17.60;88.90;;;;;;4971187;28;20179;-89
2021/07/16 03:37:16;;;;;;;28.50;9.25;;;17.50;89.00;;;;;;4973287;28;20244;-89
2021/07/16 03:39:42;;;;;;;31.45;9.73;;;17.50;88.90;;;;;;4973288;28;20175;-89
2021/07/16 03:42:08;;;;;;;37.53;9.30;;;17.60;89.00;;;;;;4972115;28;20182;-88
2021/07/16 03:44:34;;;;;;;42.33;9.80;;;17.60;89.00;;;;;;4972084;28;20635;-89
2021/07/16 03:47:00;;;;;;;33.45;9.95;;;17.60;89.10;;;;;;4972010;28;20217;-89
2021/07/16 03:49:26;;;;;;;43.97;9.82;;;17.60;89.10;;;;;;4973176;28;20171;-89
2021/07/16 03:51:53;;;;;;;34.67;10.43;;;17.70;89.00;;;;;;4972118;28;20313;-89
2021/07/16 03:54:19;;;;;;;35.25;9.38;;;17.70;89.10;;;;;;4971879;28;20186;-89
2021/07/16 03:56:45;;;;;;;28.23;8.73;;;17.70;89.20;;;;;;4972970;28;20600;-89
2021/07/16 03:59:10;;;;;;;37.63;9.80;;;17.70;89.10;;;;;;4972997;28;20190;-89
2021/07/16 04:01:36;;;;;;;33.92;8.73;;;17.80;89.20;;;;;;4972093;28;20182;-89
2021/07/16 04:04:02;;;;;;;32.22;9.45;;;17.80;89.20;;;;;;4971911;28;20203;-89
2021/07/16 04:06:28;;;;;;;45.58;9.90;;;17.80;89.20;;;;;;4971686;28;20190;-89
2021/07/16 04:08:59;;;;;;;36.03;9.13;;;17.80;89.30;;;;;;4971692;28;20612;-89
2021/07/16 04:11:25;;;;;;;40.35;10.27;;;17.90;89.30;;;;;;4971640;28;20217;-89
2021/07/16 04:13:51;;;;;;;35.20;9.57;;;17.90;89.30;;;;;;4972820;28;20179;-89
2021/07/16 04:16:16;;;;;;;32.92;10.45;;;17.90;89.40;;;;;;4972680;28;20178;-89
2021/07/16 04:18:42;;;;;;;42.47;11.50;;;17.90;89.50;;;;;;4971494;28;20727;-89
2021/07/16 04:21:07;;;;;;;40.35;11.02;;;18.00;89.50;;;;;;5055961;28;20186;-89
2021/07/16 04:23:33;;;;;;;34.00;10.10;;;18.00;89.40;;;;;;4971399;28;20202;-89
2021/07/16 04:25:59;;;;;;;35.13;10.43;;;18.00;89.30;;;;;;4971361;28;20179;-89
2021/07/16 04:28:24;;;;;;;37.88;12.48;;;18.00;89.50;;;;;;4972502;28;20269;-89
2021/07/16 04:30:50;;;;;;;38.33;11.55;;;18.00;89.60;;;;;;4972494;28;20252;-89
2021/07/16 04:33:16;;;;;;;38.08;11.40;;;18.00;89.60;;;;;;4971325;28;20646;-89
2021/07/16 04:35:41;;;;;;;37.38;11.38;;;18.00;89.70;;;;;;4971252;28;20621;-89
2021/07/16 04:38:07;;;;;;;41.72;12.45;;;18.00;89.60;;;;;;4972415;28;20191;-89
2021/07/16 04:40:34;;;;;;;46.58;12.27;;;18.00;89.60;;;;;;4971162;28;20591;-89
2021/07/16 04:43:01;;;;;;;43.22;12.05;;;18.10;89.60;;;;;;4971096;28;20207;-89
2021/07/16 04:45:27;;;;;;;44.33;11.68;;;18.10;89.50;;;;;;4971063;28;20178;-89
2021/07/16 04:47:53;;;;;;;38.22;11.88;;;18.00;89.60;;;;;;4970813;28;20286;-89
2021/07/16 04:50:19;;;;;;;47.55;13.30;;;18.00;89.60;;;;;;4971605;28;20216;-89
2021/07/16 04:52:47;;;;;;;44.08;12.45;;;18.00;89.80;;;;;;4971040;28;20266;-89
2021/07/16 04:55:14;;;;;;;41.95;11.50;;;18.00;89.70;;;;;;4972154;28;20187;-89
2021/07/16 04:57:40;;;;;;;33.97;10.88;;;18.10;89.70;;;;;;4970959;28;20199;-89
2021/07/16 05:00:08;;;;;;;51.20;12.18;;;18.20;89.60;;;;;;4971575;28;20647;-89
2021/07/16 05:02:33;;;;;;;43.30;12.38;;;18.30;89.40;;;;;;4970642;28;20210;-89
2021/07/16 05:04:59;;;;;;;43.83;13.10;;;18.30;89.40;;;;;;4971206;28;20218;-89
2021/07/16 05:07:25;;;;;;;40.35;10.90;;;18.30;89.40;;;;;;4970691;28;20228;-89
2021/07/16 05:09:51;;;;;;;42.55;11.88;;;18.30;89.40;;;;;;4970833;28;20182;-89
2021/07/16 05:12:16;;;;;;;44.13;12.15;;;18.30;89.60;;;;;;4971601;28;20175;-89
2021/07/16 05:14:42;;;;;;;35.95;10.77;;;18.40;89.70;;;;;;4970936;28;20175;-89
2021/07/16 05:17:08;;;;;;;46.03;12.65;;;18.50;89.70;;;;;;4971349;28;20206;-89
2021/07/16 05:19:33;;;;;;;39.72;11.88;;;18.50;89.60;;;;;;4970678;28;20595;-89
2021/07/16 05:22:00;;;;;;;45.17;11.38;;;18.60;89.60;;;;;;4971000;28;20242;-89
2021/07/16 05:24:26;;;;;;;40.72;11.20;;;18.70;89.60;;;;;;4970553;28;20281;-88
2021/07/16 05:26:52;;;;;;;40.15;10.98;;;18.70;89.50;;;;;;4970533;28;20285;-88
2021/07/16 05:29:18;;;;;;;47.85;11.10;;;18.80;89.30;;;;;;4970872;28;20265;-89
2021/07/16 05:31:44;;;;;;;46.03;10.85;;;18.90;89.10;;;;;;4970537;28;20185;-89
2021/07/16 05:34:09;;;;;;;38.30;9.95;;;18.90;88.40;;;;;;4970531;28;20189;-89
2021/07/16 05:36:35;;;;;;;35.03;8.95;;;19.00;88.40;;;;;;5055965;28;20531;-89
2021/07/16 05:39:04;;;;;;;33.30;8.95;;;18.90;88.20;;;;;;4970514;28;20186;-89
2021/07/16 05:41:30;;;;;;;37.25;10.00;;;18.90;88.20;;;;;;4970839;28;20270;-89
2021/07/16 05:43:56;;;;;;;37.53;9.98;;;18.90;88.10;;;;;;4971539;28;20302;-89
2021/07/16 05:46:23;;;;;;;38.80;10.45;;;18.80;88.10;;;;;;4971470;28;20177;-89
2021/07/16 05:48:49;;;;;;;34.55;8.82;;;18.90;88.20;;;;;;4970336;28;20186;-89
2021/07/16 05:51:15;;;;;;;32.63;8.82;;;18.90;88.40;;;;;;4970267;28;20266;-89
2021/07/16 05:53:42;;;;;;;45.83;9.27;;;18.90;88.40;;;;;;4970432;28;20210;-89
2021/07/16 05:56:08;;;;;;;30.70;9.48;;;19.00;88.20;;;;;;4970178;28;20182;-89
2021/07/16 05:58:33;;;;;;;35.53;8.73;;;19.00;88.20;;;;;;4972629;28;20195;-89
2021/07/16 06:00:59;;;;;;;39.95;9.57;;;19.00;88.30;;;;;;4973643;28;20658;-89
2021/07/16 06:03:25;;;;;;;38.20;9.57;;;19.00;88.40;;;;;;4973542;28;20551;-89
2021/07/16 06:05:51;;;;;;;35.47;9.50;;;19.00;88.40;;;;;;5058594;28;20190;-89
2021/07/16 06:08:16;;;;;;;47.00;9.63;;;19.10;88.40;;;;;;4973737;28;20195;-89
2021/07/16 06:10:42;;;;;;;32.15;9.73;;;19.10;88.40;;;;;;4973761;28;20224;-89
2021/07/16 06:13:08;;;;;;;44.70;9.75;;;19.10;88.30;;;;;;4973461;28;20265;-89
2021/07/16 06:15:33;;;;;;;39.95;10.35;;;19.10;88.30;;;;;;4974550;28;20522;-89
2021/07/16 06:17:59;;;;;;;29.80;9.77;;;19.20;88.40;;;;;;4974420;28;20320;-89
2021/07/16 06:20:25;;;;;;;45.50;11.45;;;19.20;88.50;;;;;;4974525;28;20182;-89
2021/07/16 06:22:51;;;;;;;46.92;12.23;;;19.20;88.60;;;;;;4974372;28;20194;-89
2021/07/16 06:25:18;;;;;;;37.75;12.00;;;19.30;88.70;;;;;;4973999;28;20174;-89
2021/07/16 06:27:44;;;;;;;52.70;13.07;;;19.30;88.20;;;;;;4973127;28;20697;-89
2021/07/16 06:30:12;;;;;;;49.30;13.48;;;19.30;87.70;;;;;;4974460;28;20186;-89
2021/07/16 06:32:38;;;;;;;42.65;12.88;;;19.30;87.50;;;;;;4973160;28;20174;-89
2021/07/16 06:35:05;;;;;;;43.45;13.70;;;19.40;87.50;;;;;;4974302;28;20174;-89
2021/07/16 06:37:31;;;;;;;55.88;14.65;;;19.40;87.40;;;;;;4973006;28;20207;-89
2021/07/16 06:39:57;;;;;;;46.78;13.98;;;19.50;87.40;;;;;;4973032;28;20567;-89
2021/07/16 06:42:27;;;;;;;35.88;12.40;;;19.60;87.40;;;;;;5057923;28;20706;-89
2021/07/16 06:44:52;;;;;;;41.03;13.25;;;19.60;87.20;;;;;;4974513;28;20181;-90
2021/07/16 06:47:18;;;;;;;43.42;12.57;;;19.60;87.00;;;;;;4974168;28;20187;-90
2021/07/16 06:49:46;;;;;;;40.75;13.10;;;19.70;86.80;;;;;;4974139;28;20199;-90
2021/07/16 06:52:12;;;;;;;43.15;12.48;;;19.70;86.80;;;;;;4974116;28;20181;-90
2021/07/16 06:54:38;;;;;;;45.08;12.38;;;19.70;86.50;;;;;;4974167;28;20333;-89
2021/07/16 06:57:04;;;;;;;46.53;12.25;;;19.70;86.80;;;;;;4972856;28;20206;-89
2021/07/16 06:59:30;;;;;;;44.90;10.88;;;19.80;86.80;;;;;;4973935;28;20170;-89
2021/07/16 07:01:56;;;;;;;46.28;11.35;;;19.80;86.70;;;;;;4974087;28;20552;-89
2021/07/16 07:04:23;;;;;;;33.15;10.00;;;19.90;86.10;;;;;;4974037;28;20281;-89
2021/07/16 07:06:49;;;;;;;38.75;10.00;;;20.00;86.10;;;;;;4973036;28;20201;-89
2021/07/16 07:09:15;;;;;;;47.75;10.82;;;20.00;86.00;;;;;;4973834;28;20166;-90
2021/07/16 07:11:40;;;;;;;41.10;11.95;;;20.20;85.70;;;;;;4972641;28;20175;-89
2021/07/16 07:14:06;;;;;;;42.10;11.32;;;20.30;86.10;;;;;;4973825;28;20175;-90
2021/07/16 07:16:32;;;;;;;41.30;11.45;;;20.50;85.90;;;;;;4972348;28;20175;-89
2021/07/16 07:18:58;;;;;;;44.63;10.93;;;20.50;85.40;;;;;;4973804;28;20182;-90
2021/07/16 07:21:23;;;;;;;42.42;11.10;;;20.50;84.70;;;;;;4972586;28;20175;-89
2021/07/16 07:23:49;;;;;;;45.47;10.77;;;20.50;85.00;;;;;;4973879;28;20202;-90
2021/07/16 07:26:15;;;;;;;37.83;10.68;;;20.60;85.30;;;;;;4973440;28;20171;-89
2021/07/16 07:28:40;;;;;;;36.75;9.45;;;20.70;84.80;;;;;;5057080;28;20209;-89
2021/07/16 07:31:06;;;;;;;37.45;9.43;;;20.70;84.10;;;;;;4973488;28;20171;-89
2021/07/16 07:33:32;;;;;;;42.65;10.38;;;20.80;83.90;;;;;;4972301;28;20718;-90
2021/07/16 07:35:59;;;;;;;37.58;7.88;;;20.80;83.80;;;;;;4972600;28;20584;-90
2021/07/16 07:38:26;;;;;;;39.78;9.10;;;20.70;83.90;;;;;;5057131;28;20709;-89
2021/07/16 07:40:53;;;;;;;32.58;8.23;;;20.70;84.50;;;;;;4972246;28;20182;-89
2021/07/16 07:43:19;;;;;;;36.38;8.73;;;20.90;83.80;;;;;;4973234;28;20195;-90
2021/07/16 07:45:45;;;;;;;33.55;8.38;;;21.00;83.00;;;;;;4973193;28;20174;-89
2021/07/16 07:48:11;;;;;;;37.20;9.40;;;21.00;82.80;;;;;;4973223;28;20230;-90
2021/07/16 07:50:36;;;;;;;40.03;9.20;;;21.20;83.30;;;;;;4972380;28;20190;-90
2021/07/16 07:53:02;;;;;;;42.70;9.45;;;21.20;83.50;;;;;;4973420;28;20182;-89
2021/07/16 07:55:28;;;;;;;33.95;7.63;;;21.40;83.20;;;;;;4973185;28;20183;-89
2021/07/16 07:57:54;;;;;;;28.00;7.28;;;21.30;83.10;;;;;;4973129;28;20197;-89
2021/07/16 08:00:25;;;;;;;39.17;7.55;;;21.40;82.70;;;;;;4973095;28;20607;-90
2021/07/16 08:02:51;;;;;;;34.60;8.38;;;21.20;83.00;;;;;;4972926;28;20191;-90
2021/07/16 08:05:18;;;;;;;31.98;7.63;;;21.50;83.70;;;;;;4971803;28;20666;-89
2021/07/16 08:07:44;;;;;;;32.45;6.75;;;21.70;83.50;;;;;;5056787;28;20207;-89
2021/07/16 08:10:16;;;;;;;45.25;9.52;;;21.90;83.20;;;;;;4971845;28;20695;-89
2021/07/16 08:12:43;;;;;;;27.73;7.32;;;22.10;81.90;;;;;;4971878;28;20560;-89
2021/07/16 08:15:10;;;;;;;35.00;7.25;;;21.90;80.30;;;;;;4972896;28;20174;-90
2021/07/16 08:17:35;;;;;;;32.83;7.45;;;21.90;81.10;;;;;;4971513;28;20257;-89
2021/07/16 08:20:03;;;;;;;38.65;8.48;;;22.00;80.80;;;;;;4971736;28;20642;-89
2021/07/16 08:22:28;;;;;;;35.83;7.78;;;22.10;81.20;;;;;;4972250;28;20171;-89
2021/07/16 08:24:54;;;;;;;30.17;7.57;;;22.20;81.00;;;;;;5056107;28;20193;-89
2021/07/16 08:27:19;;;;;;;27.27;7.25;;;22.40;80.20;;;;;;4972569;28;20194;-89
2021/07/16 08:29:45;;;;;;;31.27;6.72;;;22.50;78.70;;;;;;4971316;28;20175;-89
2021/07/16 08:32:10;;;;;;;26.75;7.03;;;22.20;80.30;;;;;;4972612;28;20715;-88
2021/07/16 08:34:36;;;;;;;34.33;7.00;;;22.30;79.00;;;;;;4971328;28;20182;-89
2021/07/16 08:37:02;;;;;;;27.83;6.88;;;22.20;79.30;;;;;;4971319;28;20203;-89
2021/07/16 08:39:28;;;;;;;27.30;6.97;;;22.40;79.50;;;;;;4972724;28;20174;-89
2021/07/16 08:41:54;;;;;;;28.15;6.82;;;22.20;79.60;;;;;;4971597;28;20175;-89
2021/07/16 08:44:19;;;;;;;32.08;7.43;;;22.20;78.70;;;;;;4972317;28;20202;-89
2021/07/16 08:46:47;;;;;;;28.42;6.30;;;22.40;78.00;;;;;;4971245;28;20281;-89
2021/07/16 08:49:15;;;;;;;29.08;7.65;;;22.60;79.00;;;;;;4972439;28;20220;-89
2021/07/16 08:51:42;;;;;;;29.92;7.30;;;22.70;79.30;;;;;;4972330;28;20171;-89
2021/07/16 08:54:12;;;;;;;20.70;5.72;;;22.70;78.70;;;;;;4971635;28;20183;-89
2021/07/16 08:56:38;;;;;;;28.95;6.68;;;22.70;79.30;;;;;;4971083;28;20236;-89
2021/07/16 08:59:08;;;;;;;27.67;6.53;;;22.50;78.10;;;;;;4972549;28;20211;-89
2021/07/16 09:01:35;;;;;;;31.98;7.45;;;22.60;78.70;;;;;;4972038;28;20186;-89
2021/07/16 09:04:05;;;;;;;26.17;6.55;;;22.90;78.90;;;;;;4970933;28;20210;-89
2021/07/16 09:06:52;;;;;;;25.77;6.13;;;23.00;79.30;;;;;;4970825;28;20643;-89
2021/07/16 09:09:26;;;;;;;33.58;7.28;;;23.20;77.40;;;;;;4970998;28;20221;-89
2021/07/16 09:11:56;;;;;;;27.63;6.72;;;23.20;78.60;;;;;;4971287;28;20198;-89
2021/07/16 09:14:30;;;;;;;28.88;7.95;;;23.20;77.80;;;;;;4972465;28;20174;-89
2021/07/16 09:17:02;;;;;;;34.63;6.65;;;23.10;77.50;;;;;;5057862;22;20217;-88
2021/07/16 09:19:41;;;;;;;23.67;6.38;;;23.40;77.50;;;;;;5071638;28;20553;-88
2021/07/16 09:22:13;;;;;;;31.40;7.10;;;23.40;77.50;;;;;;5055986;28;20159;-88
2021/07/16 09:24:49;;;;;;;28.15;6.95;;;23.50;76.70;;;;;;5056188;28;20203;-87
2021/07/16 09:27:40;;;;;;;28.95;7.05;;;23.20;77.30;;;;;;5073182;28;20270;-87
2021/07/16 09:30:23;;;;;;;30.40;6.38;;;23.60;76.30;;;;;;5073519;28;20213;-87
2021/07/16 09:32:48;;;;;;;27.45;7.70;;;23.70;76.30;;;;;;5054474;28;20163;-88
2021/07/16 09:35:25;;;;;;;36.47;8.18;;;23.70;75.50;;;;;;5055216;28;20647;-86
2021/07/16 09:37:59;;;;;;;30.20;7.05;;;23.50;76.10;;;;;;5071906;28;20202;-87
2021/07/16 09:40:29;;;;;;;23.13;6.43;;;24.00;76.70;;;;;;5071902;28;20167;-87
2021/07/16 09:43:13;;;;;;;21.42;5.95;;;24.50;74.50;;;;;;5071915;28;20233;-87
2021/07/16 09:45:42;;;;;;;34.38;7.75;;;24.50;74.30;;;;;;5071968;28;20164;-88
2021/07/16 09:48:41;;;;;;;28.35;7.20;;;24.90;74.20;;;;;;5071816;28;20225;-88
2021/07/16 09:51:19;;;;;;;33.72;7.55;;;25.30;72.40;;;;;;5040524;28;20191;-88
2021/07/16 09:54:00;;;;;;;38.08;7.53;;;25.50;72.70;;;;;;5055115;28;20163;-88
2021/07/16 09:56:31;;;;;;;34.72;6.78;;;25.20;71.70;;;;;;5071826;28;20209;-88
2021/07/16 09:59:05;;;;;;;30.60;7.00;;;25.50;71.80;;;;;;5072861;28;20191;-87
2021/07/16 10:01:33;;;;;;;23.77;5.38;;;25.70;71.50;;;;;;5071790;28;20170;-87
2021/07/16 10:04:00;;;;;;;27.75;6.57;;;25.20;69.20;;;;;;5071516;28;20578;-87
2021/07/16 10:06:28;;;;;;;35.15;7.07;;;25.20;71.90;;;;;;5071635;28;20179;-87
2021/07/16 10:08:55;;;;;;;33.10;7.00;;;25.30;70.50;;;;;;5071613;28;20192;-87
2021/07/16 10:11:22;;;;;;;38.35;7.70;;;25.30;71.00;;;;;;5071601;28;20176;-88
2021/07/16 10:13:51;;;;;;;27.40;5.95;;;25.30;69.00;;;;;;5071527;28;20176;-88
2021/07/16 10:16:17;;;;;;;27.77;5.93;;;25.10;71.40;;;;;;5072745;28;20171;-88
2021/07/16 10:18:44;;;;;;;36.08;7.70;;;25.00;71.30;;;;;;5072868;28;20203;-87
2021/07/16 10:21:10;;;;;;;27.50;7.65;;;25.00;72.40;;;;;;5055126;28;20573;-88
2021/07/16 10:23:38;;;;;;;25.25;6.40;;;24.90;71.70;;;;;;5072722;28;20569;-88
2021/07/16 10:26:08;;;;;;;26.23;6.03;;;24.70;71.10;;;;;;5072628;28;20171;-89
2021/07/16 10:28:40;;;;;;;32.10;7.10;;;25.00;70.60;;;;;;5071392;28;20282;-89
2021/07/16 10:31:28;;;;;;;28.50;7.18;;;25.20;69.80;;;;;;5072333;28;20175;-89
2021/07/16 10:33:55;;;;;;;27.48;6.95;;;25.20;69.10;;;;;;5054756;28;20179;-89
2021/07/16 10:36:47;;;;;;;29.38;6.47;;;25.10;71.70;;;;;;5071414;28;20183;-89
2021/07/16 10:39:37;;;;;;;22.50;6.35;;;25.10;70.80;;;;;;5072300;28;20168;-89
2021/07/16 10:42:25;;;;;;;30.83;6.85;;;25.40;67.80;;;;;;5071639;28;20176;-89
2021/07/16 10:44:58;;;;;;;25.42;6.85;;;25.30;68.70;;;;;;5056571;28;20245;-89
2021/07/16 10:47:42;;;;;;;30.83;6.35;;;24.90;69.80;;;;;;5076046;28;20719;-89
2021/07/16 10:50:27;;;;;;;26.65;6.10;;;25.10;72.70;;;;;;5058203;28;20206;-89
2021/07/16 10:52:53;;;;;;;21.02;6.82;;;25.20;68.10;;;;;;5058135;28;20179;-89
2021/07/16 10:55:40;;;;;;;25.73;6.80;;;25.10;69.40;;;;;;5058053;28;20182;-89
2021/07/16 10:58:30;;;;;;;32.88;6.57;;;25.30;68.00;;;;;;5075253;28;20669;-89
2021/07/16 11:01:04;;;;;;;24.73;6.78;;;25.20;69.20;;;;;;5058081;28;20171;-89
2021/07/16 11:03:56;;;;;;;31.63;6.85;;;25.60;67.40;;;;;;5074628;28;20202;-89
2021/07/16 11:06:42;;;;;;;29.90;6.35;;;25.40;66.40;;;;;;5071247;28;20184;-89
2021/07/16 11:09:07;;;;;;;31.60;7.45;;;25.20;68.90;;;;;;5074318;28;20198;-89
2021/07/16 11:11:34;;;;;;;32.85;7.38;;;25.20;70.10;;;;;;5075664;28;20728;-90
2021/07/16 11:14:00;;;;;;;27.40;8.07;;;25.40;69.90;;;;;;5057838;28;20186;-89
2021/07/16 11:16:34;;;;;;;23.08;5.93;;;25.50;67.30;;;;;;5075627;28;20257;-90
2021/07/16 11:19:09;;;;;;;29.50;6.47;;;25.60;67.90;;;;;;5058656;28;20242;-89
2021/07/16 11:21:46;;;;;;;26.67;6.10;;;25.90;66.40;;;;;;5057586;28;20615;-89
2021/07/16 11:26:56;;;;;;;26.10;7.35;;;25.90;67.70;;;;;;5075579;28;20186;-89
2021/07/16 11:29:27;;;;;;;24.92;7.03;;;25.30;70.00;;;;;;5075593;28;20261;-89
2021/07/16 11:32:06;;;;;;;28.98;7.30;;;25.80;68.30;;;;;;5074091;28;20252;-89
2021/07/16 11:34:32;;;;;;;26.70;7.25;;;26.00;67.00;;;;;;5074105;28;20171;-89
2021/07/16 11:36:58;;;;;;;30.27;7.57;;;26.00;67.60;;;;;;5073857;28;20807;-89
2021/07/16 11:39:31;;;;;;;37.10;6.85;;;25.90;67.50;;;;;;5075068;28;20175;-89
2021/07/16 11:41:58;;;;;;;28.77;7.90;;;26.20;67.10;;;;;;5075022;28;20171;-89
2021/07/16 11:44:31;;;;;;;23.15;6.18;;;25.90;68.10;;;;;;5074991;28;20194;-89
2021/07/16 11:46:58;;;;;;;32.63;7.22;;;26.00;67.50;;;;;;5073508;28;20547;-89
2021/07/16 11:49:29;;;;;;;28.83;7.32;;;25.70;68.00;;;;;;5074669;28;20164;-89
2021/07/16 11:52:02;;;;;;;25.40;6.22;;;25.70;67.60;;;;;;5074978;28;20202;-89
2021/07/16 11:54:31;;;;;;;22.77;6.53;;;25.60;67.30;;;;;;5074934;28;20247;-90
2021/07/16 11:57:00;;;;;;;24.55;6.80;;;26.00;67.50;;;;;;5073696;28;20175;-89
2021/07/16 11:59:28;;;;;;;24.10;6.65;;;26.20;67.90;;;;;;5074756;28;20715;-89
2021/07/16 12:02:10;;;;;;;34.65;7.68;;;26.20;66.90;;;;;;5073537;28;20715;-89
2021/07/16 12:04:39;;;;;;;35.33;8.70;;;26.20;65.40;;;;;;5073213;28;20658;-89
2021/07/16 12:07:05;;;;;;;34.72;8.35;;;26.40;66.50;;;;;;5074341;28;20191;-89
2021/07/16 12:09:32;;;;;;;28.95;7.30;;;26.70;66.00;;;;;;5074345;28;20577;-89
2021/07/16 12:12:05;;;;;;;29.55;7.80;;;26.50;63.70;;;;;;5073140;28;20666;-89
2021/07/16 12:14:55;;;;;;;29.70;7.55;;;26.40;65.80;;;;;;5074397;28;20243;-89
2021/07/16 12:17:27;;;;;;;26.27;6.20;;;26.80;65.80;;;;;;5074077;28;20708;-89
2021/07/16 12:19:54;;;;;;;30.25;7.20;;;26.80;65.00;;;;;;5074227;28;20175;-89
2021/07/16 12:22:31;;;;;;;25.13;6.50;;;26.50;65.20;;;;;;5074139;28;20185;-89
2021/07/16 12:24:58;;;;;;;25.08;7.07;;;26.30;65.70;;;;;;5072704;28;20202;-89
2021/07/16 12:27:24;;;;;;;27.67;6.55;;;26.40;64.90;;;;;;5073596;28;20555;-89
2021/07/16 12:29:59;;;;;;;24.70;6.15;;;26.20;64.20;;;;;;5074162;28;20167;-89
2021/07/16 12:32:52;;;;;;;26.92;6.47;;;25.90;65.80;;;;;;5072818;28;20177;-89
2021/07/16 12:35:26;;;;;;;24.88;6.53;;;26.50;65.90;;;;;;5070031;28;20658;-89
2021/07/16 12:38:03;;;;;;;22.10;5.95;;;26.00;64.80;;;;;;5072615;28;20203;-89
2021/07/16 12:40:30;;;;;;;25.98;5.90;;;26.40;65.00;;;;;;5072713;28;20194;-89
2021/07/16 12:43:10;;;;;;;29.05;6.88;;;25.90;65.80;;;;;;5072727;28;20257;-89
2021/07/16 12:45:55;;;;;;;20.27;5.97;;;25.90;64.90;;;;;;5072599;28;20163;-89